Terminal Aerodrome Forecast
Issued by NWS

Home | Current Version | Previous Version | Text Only | Print | Product List | Glossary Off
Versions: 1 2 3 4 5 6 7 8 9 10 11 12 13 14 15

000
FTUS43 KBIS 201100
TAFJMS
TAF
KJMS 201131Z 2012/2112 30009KT P6SM SKC
     FM201800 26006KT P6SM SCT030
     FM210300 18009KT P6SM SCT030 BKN120
     FM210600 18011KT P6SM BKN030=

USA.gov is the U.S. government's official web portal to all federal, state and local government web resources and services.